Airfield :
LOGIN :

Register | Disclaimer

   EN    FR    IT 

 










Legend :    VFR   Marginal VFR   IFR   Intensive IFR   Very Intensive IFR
Visi :
Ceiling :
>= 8 km
>= 3000ft
5 to 8 km
1000 to 3000 ft
1500m to 5 km
500 to 1000 ft
800 to 1500m
200 to 500 ft
< 800m
< 200 ft
Symbols :   Thunderstorms  Fog  Heavy snow  Heavy precipitations  Wind > 20 kt
SIGMETs :     Misc.  Thunderstorms  Icing  Turbulence  Mountain Waves  Volcanic Ashes






- Airport Elevation : 102 ft
- IATA code : EXT


EGTE - Exeter

CURRENT METAR :
  • 111950Z VRB03KT 9999 FEW030 05/04 Q1005

EXPIRED METARs :
  • 111920Z 26004KT 230V290 9999 FEW025 07/04 Q1005
  • 111850Z 24009KT 9999 -SHRA FEW015CB 06/04 Q1005 RESHRA
  • 111820Z 26015G29KT 9999 SHRA FEW015CB 07/02 Q1005
  • 111750Z 25009KT 9999 FEW025 07/04 Q1005
  • 111720Z 25010KT 9999 FEW025 06/04 Q1005

TAF AMD TAF EGTE
Valid from the 11 at 18:00 until the 12 at 03:00 UTC


111820Z 1118/1203 28010KT 9999 SCT025
TEMPO 1118/1203 30017G27KT 7000 SHRA
PROB40
TEMPO 1118/1124 3000 +SHRA SHGS BKN014CB
PROB30
TEMPO 1200/1203 3000 +SHRA



MET'MAP, your aeronautical weather chart ! - Copyright ORBIFLY December 2007 - Disclaimer

ORBIFLY MET'MAP TEAM :

Programming & Development : Alexandra Zaïnal
Concept & Development : Baudouin d'Aumeries
Co-Development & Prog : Marc-Olivier Méhu
Technical & hardware support : Manuel Goepfert

Contact : metmap@orbifly.com




SOURCES & CREDITS :

   NOAA